Time;durP1;ratioP1;P1;durP2;ratioP2;P2;SDS_P1;SDS_P2;PMS_P1;PMS_P2;Temp;Humidity;BMP_temperature;BMP_pressure;BME280_temperature;BME280_humidity;BME280_pressure;Samples;Min_cycle;Max_cycle;Signal;HPM_P1;HPM_P2
2021/05/29 00:02:58;;;;;;;9.57;8.63;;;11.80;93.80;;;;;;8304363;28;20191;-78
2021/05/29 00:06:59;;;;;;;9.20;7.50;;;11.70;94.10;;;;;;8330830;28;20203;-78
2021/05/29 00:11:03;;;;;;;12.40;9.23;;;11.70;94.40;;;;;;8317127;28;20201;-76
2021/05/29 00:15:04;;;;;;;12.00;8.37;;;11.60;94.30;;;;;;8333902;28;20259;-76
2021/05/29 00:19:05;;;;;;;12.90;8.83;;;11.60;94.40;;;;;;8314091;28;20788;-76
2021/05/29 00:23:15;;;;;;;13.83;9.10;;;11.50;94.50;;;;;;8321054;28;20838;-77
2021/05/29 00:27:16;;;;;;;13.63;9.13;;;11.50;94.50;;;;;;8331147;28;20536;-77
2021/05/29 00:31:17;;;;;;;14.47;9.13;;;11.40;94.50;;;;;;8329679;28;20802;-77
2021/05/29 00:35:18;;;;;;;15.03;9.57;;;11.40;94.40;;;;;;8324132;28;20261;-76
2021/05/29 00:39:18;;;;;;;11.40;8.57;;;11.30;94.40;;;;;;8310454;28;21172;-75
2021/05/29 00:43:21;;;;;;;13.73;9.07;;;11.20;94.40;;;;;;8306305;28;20194;-76
2021/05/29 00:47:25;;;;;;;12.03;9.00;;;11.20;94.60;;;;;;8308889;28;20198;-77
2021/05/29 00:51:25;;;;;;;10.00;8.40;;;11.10;94.70;;;;;;8310754;28;20526;-76
2021/05/29 00:55:26;;;;;;;9.60;7.90;;;11.00;94.90;;;;;;8311042;28;20502;-75
2021/05/29 00:59:27;;;;;;;9.77;7.13;;;10.90;95.00;;;;;;8305582;28;20192;-76
2021/05/29 01:03:30;;;;;;;8.30;7.50;;;11.00;94.80;;;;;;8324591;28;20458;-76
2021/05/29 01:07:31;;;;;;;8.70;7.40;;;11.00;94.70;;;;;;8326911;28;20442;-76
2021/05/29 01:11:31;;;;;;;10.20;8.20;;;10.90;94.70;;;;;;8315948;28;20449;-78
2021/05/29 01:15:46;;;;;;;8.93;8.03;;;10.80;94.70;;;;;;8319370;28;20203;-77
2021/05/29 01:19:47;;;;;;;13.83;8.77;;;10.80;94.70;;;;;;8323557;28;20236;-75
2021/05/29 01:23:47;;;;;;;9.70;8.70;;;10.70;94.80;;;;;;8298448;28;20474;-77
2021/05/29 01:28:17;;;;;;;11.90;7.53;;;10.70;94.90;;;;;;8309928;28;23009;-77
2021/05/29 01:32:22;;;;;;;10.93;8.60;;;10.60;95.10;;;;;;8304566;28;20289;-76
2021/05/29 01:36:24;;;;;;;8.50;6.70;;;10.60;95.20;;;;;;8321095;28;20449;-76
2021/05/29 01:40:25;;;;;;;11.40;7.80;;;10.60;95.20;;;;;;8309750;28;20454;-77
2021/05/29 01:44:25;;;;;;;13.73;8.00;;;10.60;95.00;;;;;;8325648;28;20618;-76
2021/05/29 01:48:33;;;;;;;9.40;6.90;;;10.60;95.00;;;;;;8305567;28;20222;-76
2021/05/29 01:52:43;;;;;;;14.10;7.33;;;10.60;94.90;;;;;;8303701;28;20223;-77
2021/05/29 01:56:44;;;;;;;7.80;7.00;;;10.50;94.90;;;;;;8320892;28;20436;-77
2021/05/29 02:00:45;;;;;;;8.67;7.53;;;10.50;94.90;;;;;;8322452;28;20507;-77
2021/05/29 02:04:46;;;;;;;10.57;7.07;;;10.40;95.00;;;;;;8309676;28;20332;-76
2021/05/29 02:08:46;;;;;;;8.43;7.53;;;10.40;94.90;;;;;;8323547;28;20490;-77
2021/05/29 02:12:49;;;;;;;10.73;7.27;;;10.40;94.80;;;;;;8311583;28;20179;-76
2021/05/29 02:16:50;;;;;;;9.83;8.33;;;10.30;94.90;;;;;;8305673;28;20195;-76
2021/05/29 02:21:02;;;;;;;13.60;7.63;;;10.30;94.80;;;;;;8300136;28;20456;-76
2021/05/29 02:25:05;;;;;;;10.20;8.30;;;10.20;94.90;;;;;;8307422;28;20221;-76
2021/05/29 02:29:05;;;;;;;10.87;7.63;;;10.10;95.00;;;;;;8321029;28;20509;-77
2021/05/29 02:33:10;;;;;;;9.83;7.37;;;10.10;95.00;;;;;;8302090;28;20437;-76
2021/05/29 02:37:12;;;;;;;9.30;8.33;;;10.10;95.10;;;;;;8306322;28;20237;-76
2021/05/29 02:41:14;;;;;;;15.40;8.60;;;10.10;95.10;;;;;;8324696;28;20450;-76
2021/05/29 02:45:15;;;;;;;12.50;8.50;;;10.00;95.20;;;;;;8321543;28;20611;-76
2021/05/29 02:49:16;;;;;;;11.80;8.60;;;10.00;95.30;;;;;;8322340;28;20508;-76
2021/05/29 02:53:18;;;;;;;10.07;9.00;;;10.00;95.30;;;;;;8308269;28;20455;-76
2021/05/29 02:57:18;;;;;;;12.00;9.13;;;10.00;95.30;;;;;;8321164;28;20242;-76
2021/05/29 03:01:19;;;;;;;12.20;9.17;;;9.90;95.20;;;;;;8323433;28;20437;-77
2021/05/29 03:05:20;;;;;;;13.07;10.33;;;9.90;95.30;;;;;;8323964;28;20205;-77
2021/05/29 03:09:21;;;;;;;11.07;9.30;;;9.90;95.20;;;;;;8303059;28;20191;-76
2021/05/29 03:13:22;;;;;;;12.63;10.77;;;9.90;95.30;;;;;;8321986;28;20440;-77
2021/05/29 03:17:22;;;;;;;14.30;9.33;;;9.90;95.20;;;;;;8302937;28;20194;-76
2021/05/29 03:21:23;;;;;;;15.27;11.40;;;9.80;95.20;;;;;;8321584;28;20214;-76
2021/05/29 03:25:24;;;;;;;17.87;11.07;;;9.80;95.40;;;;;;8323658;28;20200;-76
2021/05/29 03:29:25;;;;;;;14.60;10.27;;;9.70;95.50;;;;;;8304257;28;20723;-76
2021/05/29 03:33:26;;;;;;;18.80;10.87;;;9.70;95.60;;;;;;8325668;28;20828;-76
2021/05/29 03:37:26;;;;;;;12.77;9.47;;;9.60;95.60;;;;;;8324290;28;20253;-76
2021/05/29 03:41:27;;;;;;;13.93;9.77;;;9.60;95.90;;;;;;8300603;28;20311;-76
2021/05/29 03:45:28;;;;;;;15.53;10.17;;;9.60;95.70;;;;;;8307321;28;20212;-76
2021/05/29 03:49:28;;;;;;;13.87;10.50;;;9.60;95.70;;;;;;8321940;28;20260;-77
2021/05/29 03:53:29;;;;;;;14.37;11.00;;;9.60;95.80;;;;;;8309560;28;20277;-77
2021/05/29 03:57:30;;;;;;;10.87;8.47;;;9.50;95.80;;;;;;8309276;28;20635;-77
2021/05/29 04:01:31;;;;;;;15.00;9.40;;;9.50;95.70;;;;;;8303193;28;20190;-76
2021/05/29 04:05:32;;;;;;;13.93;10.40;;;9.50;95.80;;;;;;8308605;28;20207;-76
2021/05/29 04:09:32;;;;;;;10.87;9.20;;;9.50;95.70;;;;;;8302802;28;20449;-77
2021/05/29 04:13:33;;;;;;;13.53;10.53;;;9.60;95.80;;;;;;8308289;28;20942;-77
2021/05/29 04:17:34;;;;;;;12.80;10.40;;;9.50;95.80;;;;;;8304019;28;20233;-77
2021/05/29 04:21:35;;;;;;;15.60;10.80;;;9.60;95.90;;;;;;8310271;28;20277;-77
2021/05/29 04:25:36;;;;;;;13.50;9.83;;;9.70;96.00;;;;;;8310766;28;20467;-77
2021/05/29 04:29:36;;;;;;;12.83;9.03;;;9.70;96.10;;;;;;8310233;28;20183;-77
2021/05/29 04:33:37;;;;;;;13.17;9.57;;;9.80;96.20;;;;;;8325333;28;20188;-77
2021/05/29 04:37:38;;;;;;;13.47;9.57;;;9.90;96.20;;;;;;8312824;28;20220;-77
2021/05/29 04:41:39;;;;;;;12.90;9.90;;;10.00;96.20;;;;;;8330146;28;20183;-76
2021/05/29 04:45:41;;;;;;;10.90;9.40;;;10.10;96.20;;;;;;8311325;28;20497;-77
2021/05/29 04:49:41;;;;;;;15.33;10.87;;;10.20;96.10;;;;;;8326653;28;20862;-77
2021/05/29 04:53:44;;;;;;;14.17;10.60;;;10.30;96.10;;;;;;8305068;28;20973;-77
2021/05/29 04:57:45;;;;;;;16.67;10.67;;;10.40;96.10;;;;;;8332946;28;20177;-77
2021/05/29 05:01:46;;;;;;;15.60;11.60;;;10.50;96.10;;;;;;8296214;28;20468;-76
2021/05/29 05:05:47;;;;;;;13.73;10.60;;;10.70;96.10;;;;;;8329148;28;20552;-76
2021/05/29 05:09:47;;;;;;;22.57;11.43;;;10.90;96.40;;;;;;8312418;28;20188;-76
2021/05/29 05:13:48;;;;;;;19.97;12.50;;;11.00;96.30;;;;;;8301742;28;20193;-77
2021/05/29 05:17:49;;;;;;;14.90;9.83;;;11.10;96.30;;;;;;8310478;28;20221;-77
2021/05/29 05:21:49;;;;;;;13.97;9.77;;;11.30;96.20;;;;;;8309411;28;20196;-77
2021/05/29 05:25:54;;;;;;;16.53;12.83;;;11.40;96.20;;;;;;8320666;28;20224;-76
2021/05/29 05:29:55;;;;;;;15.80;9.70;;;11.50;96.10;;;;;;8312371;28;20195;-77
2021/05/29 05:33:56;;;;;;;13.70;10.70;;;11.70;96.30;;;;;;8313209;28;20442;-77
2021/05/29 05:37:57;;;;;;;12.20;8.13;;;11.80;96.50;;;;;;8330183;28;20270;-77
2021/05/29 05:41:57;;;;;;;10.27;8.83;;;12.00;96.60;;;;;;8310992;28;20450;-78
2021/05/29 05:46:00;;;;;;;9.30;7.67;;;12.20;96.60;;;;;;8310170;28;20223;-77
2021/05/29 05:50:02;;;;;;;9.03;7.60;;;12.40;96.30;;;;;;8317774;28;20931;-78
2021/05/29 05:54:04;;;;;;;14.00;7.77;;;12.60;96.00;;;;;;8333736;28;20455;-77
2021/05/29 05:58:04;;;;;;;9.10;8.10;;;12.80;95.80;;;;;;8328356;28;21024;-78
2021/05/29 06:02:06;;;;;;;11.30;8.87;;;13.00;95.20;;;;;;8311063;28;20438;-78
2021/05/29 06:06:06;;;;;;;12.07;9.43;;;13.20;94.60;;;;;;8310967;28;20204;-78
2021/05/29 06:10:08;;;;;;;9.07;7.30;;;13.40;93.80;;;;;;8334526;28;20565;-78
2021/05/29 06:22:26;;;;;;;8.53;6.93;;;14.60;92.50;;;;;;8323188;28;21279;-76
2021/05/29 06:26:27;;;;;;;9.47;8.40;;;15.10;91.60;;;;;;8303779;28;20976;-77
2021/05/29 06:30:27;;;;;;;9.33;6.67;;;15.50;91.70;;;;;;8319454;28;20270;-77
2021/05/29 06:34:28;;;;;;;8.37;6.80;;;16.10;90.90;;;;;;8306774;28;20185;-77
2021/05/29 06:38:29;;;;;;;8.13;7.30;;;16.40;89.30;;;;;;8315462;28;20241;-76
2021/05/29 06:42:29;;;;;;;13.40;9.47;;;16.80;88.20;;;;;;8323245;28;20275;-77
2021/05/29 06:46:30;;;;;;;10.33;7.63;;;17.10;86.80;;;;;;8328491;28;21614;-77
2021/05/29 06:50:34;;;;;;;9.60;8.67;;;17.40;86.10;;;;;;8307133;28;20199;-77
2021/05/29 06:58:38;;;;;;;9.17;8.10;;;17.70;85.70;;;;;;8289031;28;20208;-77
2021/05/29 06:58:56;;;;;;;8.03;7.23;;;18.00;84.90;;;;;;8316967;28;21102;-77
2021/05/29 07:02:56;;;;;;;8.63;7.83;;;18.20;84.10;;;;;;8326529;28;21018;-77
2021/05/29 07:06:59;;;;;;;9.70;7.50;;;18.50;81.60;;;;;;8327179;28;20298;-76
2021/05/29 07:11:00;;;;;;;13.33;8.53;;;18.50;81.80;;;;;;8314141;28;20185;-75
2021/05/29 07:15:05;;;;;;;12.93;7.43;;;18.80;79.80;;;;;;8304048;28;20759;-76
2021/05/29 07:19:05;;;;;;;8.70;7.00;;;19.00;79.50;;;;;;8301775;28;20180;-75
2021/05/29 07:23:07;;;;;;;10.90;7.00;;;19.10;79.00;;;;;;8318530;28;20445;-76
2021/05/29 07:27:09;;;;;;;9.47;6.20;;;19.20;78.90;;;;;;8310060;28;20211;-76
2021/05/29 07:31:10;;;;;;;8.73;7.00;;;19.30;77.80;;;;;;8320820;28;20477;-76
2021/05/29 07:35:12;;;;;;;9.57;7.43;;;19.40;77.20;;;;;;8302954;28;20452;-76
2021/05/29 07:39:13;;;;;;;10.63;8.17;;;19.50;76.40;;;;;;8307651;28;20241;-77
2021/05/29 07:43:14;;;;;;;10.00;6.67;;;19.60;75.50;;;;;;8320545;28;20454;-76
2021/05/29 07:47:17;;;;;;;6.40;5.60;;;19.60;75.00;;;;;;8311042;28;20245;-76
2021/05/29 07:51:20;;;;;;;6.67;6.00;;;19.70;74.10;;;;;;8313345;28;20994;-77
2021/05/29 07:55:21;;;;;;;8.20;6.00;;;19.60;74.20;;;;;;8333388;28;20575;-77
2021/05/29 07:59:24;;;;;;;11.27;6.03;;;19.80;74.20;;;;;;8325817;28;20469;-77
2021/05/29 08:03:27;;;;;;;9.07;6.30;;;19.90;75.20;;;;;;8321553;28;20507;-78
2021/05/29 08:07:27;;;;;;;7.13;6.30;;;20.00;73.50;;;;;;8325681;28;20500;-75
2021/05/29 08:11:28;;;;;;;6.00;5.40;;;20.10;73.60;;;;;;8308366;28;20484;-76
2021/05/29 08:15:29;;;;;;;6.80;6.10;;;20.20;71.90;;;;;;8307773;28;20207;-76
2021/05/29 08:19:29;;;;;;;9.53;5.47;;;20.30;72.80;;;;;;8322804;28;20225;-76
2021/05/29 08:23:30;;;;;;;7.80;6.13;;;20.50;73.50;;;;;;8324994;28;20612;-77
2021/05/29 08:27:31;;;;;;;7.47;5.57;;;20.80;72.30;;;;;;8304670;28;20188;-76
2021/05/29 08:31:32;;;;;;;4.97;4.00;;;21.00;70.20;;;;;;8312969;28;20180;-76
2021/05/29 08:35:33;;;;;;;3.80;3.33;;;21.10;70.00;;;;;;8319758;28;20736;-76
2021/05/29 08:39:34;;;;;;;4.63;4.23;;;21.50;67.70;;;;;;8317566;28;20477;-76
2021/05/29 08:43:35;;;;;;;6.20;4.50;;;21.70;66.50;;;;;;8309093;28;20441;-76
2021/05/29 08:47:36;;;;;;;3.40;3.20;;;22.20;64.80;;;;;;8316480;28;20203;-77
2021/05/29 08:51:36;;;;;;;3.67;3.20;;;22.70;63.50;;;;;;8316607;28;20215;-77
2021/05/29 08:55:37;;;;;;;6.40;3.30;;;23.30;61.60;;;;;;8331925;28;20446;-79
2021/05/29 08:59:38;;;;;;;3.20;2.90;;;23.70;60.10;;;;;;8332989;28;20185;-79
2021/05/29 09:03:47;;;;;;;5.43;2.70;;;24.20;59.40;;;;;;8335033;28;20184;-78
2021/05/29 09:08:04;;;;;;;4.93;3.40;;;24.50;58.40;;;;;;8314279;28;20699;-78
2021/05/29 09:12:10;;;;;;;2.37;2.20;;;24.80;56.80;;;;;;8313576;28;20439;-78
2021/05/29 09:16:11;;;;;;;3.47;3.17;;;25.10;56.40;;;;;;8315601;28;20442;-78
2021/05/29 09:20:15;;;;;;;4.10;2.57;;;25.20;54.80;;;;;;8315507;28;20448;-79
2021/05/29 09:24:20;;;;;;;4.93;1.90;;;25.60;53.20;;;;;;8328804;28;20203;-79
2021/05/29 09:28:25;;;;;;;2.67;2.07;;;25.90;52.80;;;;;;8332388;28;20467;-79
2021/05/29 09:32:28;;;;;;;3.30;2.77;;;26.30;51.20;;;;;;8316223;28;20447;-78
2021/05/29 09:36:29;;;;;;;1.87;1.77;;;26.20;49.30;;;;;;8327763;28;20450;-79
2021/05/29 09:40:31;;;;;;;2.40;1.63;;;26.50;49.00;;;;;;8320991;28;20458;-77
2021/05/29 09:44:32;;;;;;;8.53;2.20;;;27.10;48.20;;;;;;8298427;28;20220;-78
2021/05/29 09:48:33;;;;;;;1.30;1.20;;;27.90;46.80;;;;;;8311033;28;20516;-78
2021/05/29 09:52:38;;;;;;;2.30;1.40;;;28.80;44.90;;;;;;8321845;28;20541;-77
2021/05/29 09:56:46;;;;;;;4.40;2.50;;;28.70;44.20;;;;;;8325955;28;20224;-77
2021/05/29 10:00:47;;;;;;;3.93;1.83;;;27.70;45.00;;;;;;8299626;28;20538;-78
2021/05/29 10:04:55;;;;;;;2.23;2.03;;;26.80;45.80;;;;;;8310492;28;20476;-78
2021/05/29 10:08:56;;;;;;;3.87;3.50;;;27.00;45.10;;;;;;8301538;28;20554;-78
2021/05/29 10:12:57;;;;;;;2.57;2.47;;;27.20;45.20;;;;;;8314760;28;20442;-78
2021/05/29 10:17:00;;;;;;;2.60;2.40;;;27.50;44.40;;;;;;8305855;28;20188;-78
2021/05/29 10:21:01;;;;;;;3.47;2.90;;;27.70;45.00;;;;;;8319208;28;20442;-78
2021/05/29 10:25:02;;;;;;;5.80;3.57;;;27.20;45.60;;;;;;8305958;28;20497;-78
2021/05/29 10:29:04;;;;;;;3.73;3.40;;;27.20;46.20;;;;;;8318118;28;20582;-78
2021/05/29 10:33:14;;;;;;;3.07;2.80;;;27.70;45.90;;;;;;8301648;28;20983;-78
2021/05/29 10:37:27;;;;;;;3.63;2.67;;;28.10;43.50;;;;;;8298433;28;20450;-78
2021/05/29 10:42:04;;;;;;;3.67;3.33;;;27.90;44.40;;;;;;8298988;28;20496;-77
2021/05/29 10:46:09;;;;;;;5.67;3.40;;;28.30;43.90;;;;;;8312368;28;20473;-79
2021/05/29 10:50:10;;;;;;;3.00;2.80;;;28.70;44.50;;;;;;8324050;28;20250;-78
2021/05/29 10:54:13;;;;;;;4.70;3.57;;;28.70;43.20;;;;;;8310700;28;20298;-78
2021/05/29 10:58:13;;;;;;;2.97;2.70;;;27.70;43.70;;;;;;8323713;28;20188;-78
2021/05/29 11:02:20;;;;;;;3.37;3.00;;;27.10;46.40;;;;;;8321660;28;20527;-78
2021/05/29 11:06:31;;;;;;;2.97;2.77;;;27.60;45.10;;;;;;8326859;28;20219;-78
2021/05/29 11:10:32;;;;;;;2.37;2.13;;;28.20;44.10;;;;;;8321067;28;20467;-79
2021/05/29 11:14:49;;;;;;;10.57;9.03;;;28.60;44.20;;;;;;8328900;28;20513;-79
2021/05/29 11:19:12;;;;;;;3.73;3.53;;;29.30;44.10;;;;;;8307503;28;20219;-78
2021/05/29 11:23:26;;;;;;;2.57;2.13;;;29.80;42.40;;;;;;8311284;28;20213;-78
2021/05/29 11:27:34;;;;;;;2.80;2.40;;;30.00;42.50;;;;;;8305642;28;20489;-79
2021/05/29 11:31:43;;;;;;;2.30;2.10;;;29.90;41.80;;;;;;8320566;28;20461;-79
2021/05/29 11:35:50;;;;;;;3.77;2.10;;;30.00;42.20;;;;;;8327422;28;20499;-81
2021/05/29 11:39:52;;;;;;;2.40;1.90;;;30.30;40.90;;;;;;8329969;28;20451;-78
2021/05/29 11:43:53;;;;;;;2.57;2.47;;;30.60;40.60;;;;;;8311499;28;20448;-78
2021/05/29 11:47:54;;;;;;;3.20;3.00;;;30.60;41.70;;;;;;8314694;28;20541;-79
2021/05/29 11:52:00;;;;;;;3.13;2.93;;;30.40;41.60;;;;;;8306025;28;20218;-77
2021/05/29 11:56:04;;;;;;;2.50;2.40;;;28.90;41.20;;;;;;8321996;28;20216;-78
2021/05/29 12:00:10;;;;;;;3.50;3.20;;;27.50;42.70;;;;;;8310692;28;20857;-79
2021/05/29 12:04:13;;;;;;;5.70;2.80;;;26.80;44.60;;;;;;8330722;28;20454;-79
2021/05/29 12:08:13;;;;;;;3.83;3.07;;;27.10;45.20;;;;;;8313366;28;20439;-78
2021/05/29 12:12:16;;;;;;;3.93;3.63;;;27.00;45.90;;;;;;8307264;28;20458;-78
2021/05/29 12:16:34;;;;;;;3.07;2.87;;;26.70;46.40;;;;;;8282598;28;20212;-78
2021/05/29 12:20:34;;;;;;;3.43;3.03;;;27.20;44.60;;;;;;8301671;28;20430;-79
2021/05/29 12:24:51;;;;;;;5.33;3.60;;;27.60;45.10;;;;;;8305323;28;20451;-78
2021/05/29 12:28:52;;;;;;;4.63;3.93;;;27.50;45.00;;;;;;8304343;28;20206;-77
2021/05/29 12:32:53;;;;;;;2.50;2.37;;;26.80;44.70;;;;;;8299823;28;20454;-77
2021/05/29 12:37:04;;;;;;;3.60;2.80;;;26.70;46.00;;;;;;8302111;28;20527;-82
2021/05/29 12:41:09;;;;;;;11.13;2.97;;;26.90;45.40;;;;;;8320048;28;20449;-78
2021/05/29 12:45:21;;;;;;;2.77;2.57;;;26.80;44.80;;;;;;8315450;28;20446;-76
2021/05/29 12:49:27;;;;;;;3.73;3.40;;;27.60;44.90;;;;;;8309610;28;20463;-76
2021/05/29 12:53:33;;;;;;;3.33;2.90;;;27.50;45.20;;;;;;8301377;28;20458;-78
2021/05/29 12:57:42;;;;;;;3.50;3.20;;;26.70;45.10;;;;;;8286996;28;20455;-76
2021/05/29 13:02:07;;;;;;;2.70;2.50;;;26.50;44.50;;;;;;8309697;28;20536;-77
2021/05/29 13:10:40;;;;;;;5.87;2.57;;;27.50;45.90;;;;;;8306809;28;20969;-75
2021/05/29 13:14:44;;;;;;;3.00;2.47;;;27.50;44.50;;;;;;8291969;28;20559;-78
2021/05/29 13:19:00;;;;;;;2.47;2.27;;;27.90;45.70;;;;;;8306455;28;20449;-75
2021/05/29 13:23:00;;;;;;;6.97;2.80;;;28.40;45.60;;;;;;8289591;28;20434;-77
2021/05/29 13:27:01;;;;;;;2.50;2.17;;;28.60;45.30;;;;;;8308756;28;20481;-76
2021/05/29 13:31:02;;;;;;;3.73;2.40;;;28.70;44.00;;;;;;8303026;28;20239;-75
2021/05/29 13:35:04;;;;;;;3.23;3.03;;;28.60;44.10;;;;;;8312506;28;20213;-75
2021/05/29 13:39:05;;;;;;;3.10;2.80;;;27.60;45.30;;;;;;8307299;28;20699;-77
2021/05/29 13:43:10;;;;;;;4.03;2.37;;;26.80;45.40;;;;;;8287852;28;20469;-76
2021/05/29 13:47:11;;;;;;;2.73;2.53;;;26.90;45.20;;;;;;8298020;28;20657;-74
2021/05/29 13:51:12;;;;;;;3.90;2.80;;;27.50;44.70;;;;;;8299732;28;20458;-79
2021/05/29 13:55:16;;;;;;;2.83;2.63;;;27.80;43.30;;;;;;8299902;28;20273;-76
2021/05/29 13:59:18;;;;;;;4.07;2.90;;;27.70;42.80;;;;;;8291252;28;20547;-78
2021/05/29 18:49:01;;;;;;;10.70;5.03;;;17.90;69.80;;;;;;8333892;27;21018;-79
2021/05/29 18:53:03;;;;;;;6.83;6.13;;;18.20;68.30;;;;;;8326743;28;20963;-78
2021/05/29 18:57:04;;;;;;;8.93;6.37;;;19.10;63.60;;;;;;8322358;28;20438;-79
2021/05/29 19:05:44;;;;;;;5.73;4.77;;;19.60;59.60;;;;;;8330789;28;20473;-77
2021/05/29 19:09:46;;;;;;;6.00;3.93;;;19.50;59.30;;;;;;8330223;28;20442;-78
2021/05/29 19:13:48;;;;;;;6.67;4.60;;;19.40;59.70;;;;;;8331263;28;20515;-78
2021/05/29 19:17:49;;;;;;;5.03;3.93;;;19.20;60.20;;;;;;8333032;28;20536;-78
2021/05/29 19:21:57;;;;;;;4.93;4.17;;;19.00;61.30;;;;;;8333367;28;20494;-78
2021/05/29 19:30:37;;;;;;;8.70;5.40;;;18.60;61.50;;;;;;8351940;28;20429;-78
2021/05/29 19:39:19;;;;;;;4.97;4.50;;;18.30;62.80;;;;;;8331972;28;20454;-78
2021/05/29 19:43:28;;;;;;;6.70;4.70;;;18.10;63.70;;;;;;8331770;28;20446;-78
2021/05/29 20:26:44;;;;;;;8.10;6.93;;;15.90;74.80;;;;;;8311241;28;20462;-78
2021/05/29 20:30:45;;;;;;;10.90;9.73;;;15.80;76.00;;;;;;8320867;28;20442;-79
2021/05/29 20:35:08;;;;;;;13.73;9.47;;;15.70;77.20;;;;;;8313769;28;20192;-78
2021/05/29 20:39:12;;;;;;;8.70;6.93;;;15.50;78.90;;;;;;8319346;28;20496;-79
2021/05/29 20:43:13;;;;;;;11.63;8.50;;;15.40;80.20;;;;;;8302057;28;20505;-76
2021/05/29 20:47:14;;;;;;;9.70;8.23;;;15.30;81.40;;;;;;8304225;28;20469;-77
2021/05/29 20:51:15;;;;;;;9.83;8.17;;;15.10;81.40;;;;;;8309878;28;20829;-78
2021/05/29 20:55:16;;;;;;;11.43;8.47;;;15.00;82.60;;;;;;8316200;28;21827;-79
2021/05/29 20:59:19;;;;;;;12.80;8.33;;;14.90;84.10;;;;;;8309999;28;20586;-79
2021/05/29 21:03:21;;;;;;;13.90;9.00;;;14.70;84.40;;;;;;8312029;28;20237;-78
2021/05/29 21:07:21;;;;;;;11.97;8.80;;;14.60;84.90;;;;;;8313105;28;20476;-78
2021/05/29 21:11:26;;;;;;;15.43;10.57;;;14.50;85.20;;;;;;8314728;28;20962;-78
2021/05/29 21:15:33;;;;;;;14.73;10.83;;;14.40;86.40;;;;;;8316872;28;20211;-79
2021/05/29 21:23:53;;;;;;;15.27;11.97;;;14.30;87.40;;;;;;8315256;28;20474;-79
2021/05/29 21:27:54;;;;;;;20.27;13.30;;;14.20;88.20;;;;;;8318252;28;20474;-78
2021/05/29 21:31:55;;;;;;;17.00;12.37;;;14.10;89.10;;;;;;8303653;28;20454;-77
2021/05/29 21:35:56;;;;;;;16.90;12.87;;;14.00;89.40;;;;;;8312582;28;20905;-78
2021/05/29 21:39:56;;;;;;;18.70;13.53;;;13.90;89.90;;;;;;8312073;28;20207;-78
2021/05/29 21:44:01;;;;;;;16.43;12.67;;;13.80;90.20;;;;;;8309778;28;20200;-78
2021/05/29 21:52:22;;;;;;;22.83;16.00;;;13.70;90.80;;;;;;8301308;28;20459;-78
2021/05/29 21:56:23;;;;;;;24.50;14.53;;;13.60;91.10;;;;;;8302596;28;20505;-79
2021/05/29 22:00:45;;;;;;;24.03;13.73;;;13.50;91.40;;;;;;8314727;28;20451;-77
2021/05/29 22:04:46;;;;;;;34.43;19.10;;;13.40;91.60;;;;;;8311027;28;20471;-77
2021/05/29 22:08:47;;;;;;;27.77;19.03;;;13.30;91.70;;;;;;8306512;28;20474;-77
2021/05/29 22:12:57;;;;;;;26.37;17.87;;;13.30;91.80;;;;;;8310695;28;20238;-77
2021/05/29 22:30:13;;;;;;;23.10;14.77;;;13.20;92.60;;;;;;8304469;28;20518;-78
2021/05/29 22:34:14;;;;;;;20.83;14.10;;;13.10;92.50;;;;;;8322741;28;20446;-77
2021/05/29 22:38:15;;;;;;;21.30;15.70;;;13.10;92.30;;;;;;8307918;28;20465;-78
2021/05/29 22:42:16;;;;;;;25.83;14.83;;;13.00;92.40;;;;;;8320395;28;20849;-78
2021/05/29 22:46:18;;;;;;;24.70;16.97;;;12.90;92.70;;;;;;8300658;28;20268;-77
2021/05/29 22:50:19;;;;;;;27.00;15.03;;;12.80;92.90;;;;;;8306547;28;20517;-77
2021/05/29 22:54:20;;;;;;;25.07;15.27;;;12.70;93.00;;;;;;8308533;28;20447;-77
2021/05/29 22:58:21;;;;;;;25.63;16.20;;;12.70;93.00;;;;;;8318533;28;20275;-78
2021/05/29 23:02:22;;;;;;;27.47;16.60;;;12.60;93.10;;;;;;8310536;28;20512;-77
2021/05/29 23:06:22;;;;;;;22.87;14.90;;;12.50;93.20;;;;;;8311616;28;20236;-77
2021/05/29 23:10:23;;;;;;;25.17;17.60;;;12.40;93.20;;;;;;8311262;28;20184;-77
2021/05/29 23:14:24;;;;;;;24.83;16.60;;;12.40;93.40;;;;;;8311807;28;20270;-78
2021/05/29 23:18:25;;;;;;;28.70;18.80;;;12.40;93.50;;;;;;8310583;28;20192;-77
2021/05/29 23:22:26;;;;;;;28.97;16.60;;;12.30;93.60;;;;;;8307015;28;20556;-77
2021/05/29 23:26:27;;;;;;;33.20;19.63;;;12.30;93.60;;;;;;8314564;28;20890;-77
2021/05/29 23:30:27;;;;;;;31.90;19.10;;;12.30;93.60;;;;;;8309919;28;20189;-77
2021/05/29 23:34:28;;;;;;;39.20;19.73;;;12.20;93.70;;;;;;8310535;28;20915;-78
2021/05/29 23:38:29;;;;;;;28.70;17.97;;;12.20;93.70;;;;;;8319162;28;20522;-78
2021/05/29 23:42:29;;;;;;;29.80;19.50;;;12.20;93.80;;;;;;8317756;28;20243;-78
2021/05/29 23:46:30;;;;;;;28.87;18.37;;;12.20;93.80;;;;;;8315501;28;20218;-77
2021/05/29 23:50:31;;;;;;;30.13;19.30;;;12.20;93.90;;;;;;8308933;28;20209;-77
2021/05/29 23:54:32;;;;;;;41.77;20.50;;;12.10;93.70;;;;;;8316072;28;20546;-78
2021/05/29 23:58:37;;;;;;;33.03;19.53;;;12.00;93.80;;;;;;8319018;28;20446;-77
